Ryouei Maru — JL6703 — position and weather

sailwx.info

Track history (hours):
 
Tides and Currents Weather Stations Pressure Air Temp Water Temp Dewpoint Dewpoint Depression Visibility Wind Speed Wind Dir Waves Ship Positions

Ryouei Maru

Last reported at 2015-Mar-06 11:28 UTC. Time now 2015-Mar-07 04:26 UTC.
Position N 33°57' E 134°60'.

Length 95 m; draft 5 m.

Type: Cargo ship. MMSI: 431501749.

Date/timePositionNaut miles runAvg speedWind from/ knotsBaromVisibWave heightAir tempDewpointWater temp
2015-Mar-06 11:28N 33°57' E 134°60'1213.0
2015-Mar-06 10:33N 34°09' E 134°59'1312.6
2015-Mar-06 09:33N 34°21' E 134°59'1312.8
2015-Mar-06 08:33N 34°29' E 135°11'1212.3
2015-Mar-06 07:32N 34°37' E 135°23'3 1.2
2015-Mar-06 05:21N 34°37' E 135°26'0 0.0
2015-Mar-06 04:21N 34°37' E 135°26'0 0.1
2015-Mar-06 03:33N 34°37' E 135°26'0 0.0
2015-Mar-06 02:21N 34°37' E 135°26'0 0.0
2015-Mar-06 00:09N 34°37' E 135°26'0 0.1
2015-Mar-05 23:33N 34°37' E 135°26'0 0.1
2015-Mar-05 22:34N 34°37' E 135°26'7 6.3
2015-Mar-05 21:26N 34°35' E 135°18'0 0.0
2015-Mar-05 20:32N 34°35' E 135°18'0 0.0
2015-Mar-05 19:32N 34°35' E 135°18'4 4.6
2015-Mar-05 18:33N 34°31' E 135°14'1411.8
2015-Mar-05 17:24N 34°22' E 135°02'910.0
2015-Mar-05 16:33N 34°14' E 134°59'1111.4
2015-Mar-05 15:33N 34°02' E 135°01'230 4.8
2015-Mar-03 16:12N 34°58' E 139°31'813.1
2015-Mar-03 15:33N 35°04' E 139°38'1312.9
2015-Mar-03 14:33N 35°15' E 139°46'1110.9
2015-Mar-03 13:33N 35°26' E 139°45'  
2015-Feb-25 18:32N 33°58' E 134°60'1313.2
2015-Feb-25 17:33N 34°11' E 134°58'1211.7
2015-Feb-25 16:32N 34°23' E 135°00'1313.0
2015-Feb-25 15:33N 34°31' E 135°12'1212.2
2015-Feb-25 14:33N 34°37' E 135°25'1 0.8
2015-Feb-25 13:29N 34°37' E 135°26'0 0.0
2015-Feb-25 12:29N 34°37' E 135°26'0 0.0
2015-Feb-25 11:29N 34°37' E 135°26'0 0.0
2015-Feb-25 09:29N 34°37' E 135°26'0 0.0
2015-Feb-25 08:29N 34°37' E 135°26'0 0.0
2015-Feb-25 07:17N 34°37' E 135°26'0 0.0
2015-Feb-25 06:17N 34°37' E 135°26'0 0.0
2015-Feb-25 05:17N 34°37' E 135°26'0 0.0
2015-Feb-25 04:23N 34°37' E 135°26'0 0.0
2015-Feb-25 03:17N 34°37' E 135°26'1 2.0
2015-Feb-25 02:34N 34°37' E 135°24'1211.9
2015-Feb-25 01:33N 34°30' E 135°13'1412.1
2015-Feb-25 00:26N 34°20' E 135°02'1011.2
2015-Feb-24 23:31N 34°10' E 134°59'1212.0
2015-Feb-24 22:31N 33°58' E 135°01'  
Track history (hours):
 
Tides and Currents Weather Stations Pressure Air Temp Water Temp Dewpoint Dewpoint Depression Visibility Wind Speed Wind Dir Waves Ship Positions

Ryouei Maru

Last reported at 2015-Mar-06 11:28 UTC. Time now 2015-Mar-07 04:26 UTC.
Position N 33°57' E 134°60'.

Length 95 m; draft 5 m.

Type: Cargo ship. MMSI: 431501749.

Date/timePositionNaut miles runAvg speedWind from/ knotsBaromVisibWave heightAir tempDewpointWater temp
2015-Mar-06 11:28N 33°57' E 134°60'1213.0
2015-Mar-06 10:33N 34°09' E 134°59'1312.6
2015-Mar-06 09:33N 34°21' E 134°59'1312.8
2015-Mar-06 08:33N 34°29' E 135°11'1212.3
2015-Mar-06 07:32N 34°37' E 135°23'3 1.2
2015-Mar-06 05:21N 34°37' E 135°26'0 0.0
2015-Mar-06 04:21N 34°37' E 135°26'0 0.1
2015-Mar-06 03:33N 34°37' E 135°26'0 0.0
2015-Mar-06 02:21N 34°37' E 135°26'0 0.0
2015-Mar-06 00:09N 34°37' E 135°26'0 0.1
2015-Mar-05 23:33N 34°37' E 135°26'0 0.1
2015-Mar-05 22:34N 34°37' E 135°26'7 6.3
2015-Mar-05 21:26N 34°35' E 135°18'0 0.0
2015-Mar-05 20:32N 34°35' E 135°18'0 0.0
2015-Mar-05 19:32N 34°35' E 135°18'4 4.6
2015-Mar-05 18:33N 34°31' E 135°14'1411.8
2015-Mar-05 17:24N 34°22' E 135°02'910.0
2015-Mar-05 16:33N 34°14' E 134°59'1111.4
2015-Mar-05 15:33N 34°02' E 135°01'230 4.8
2015-Mar-03 16:12N 34°58' E 139°31'813.1
2015-Mar-03 15:33N 35°04' E 139°38'1312.9
2015-Mar-03 14:33N 35°15' E 139°46'1110.9
2015-Mar-03 13:33N 35°26' E 139°45'  
2015-Feb-25 18:32N 33°58' E 134°60'1313.2
2015-Feb-25 17:33N 34°11' E 134°58'1211.7
2015-Feb-25 16:32N 34°23' E 135°00'1313.0
2015-Feb-25 15:33N 34°31' E 135°12'1212.2
2015-Feb-25 14:33N 34°37' E 135°25'1 0.8
2015-Feb-25 13:29N 34°37' E 135°26'0 0.0
2015-Feb-25 12:29N 34°37' E 135°26'0 0.0
2015-Feb-25 11:29N 34°37' E 135°26'0 0.0
2015-Feb-25 09:29N 34°37' E 135°26'0 0.0
2015-Feb-25 08:29N 34°37' E 135°26'0 0.0
2015-Feb-25 07:17N 34°37' E 135°26'0 0.0
2015-Feb-25 06:17N 34°37' E 135°26'0 0.0
2015-Feb-25 05:17N 34°37' E 135°26'0 0.0
2015-Feb-25 04:23N 34°37' E 135°26'0 0.0
2015-Feb-25 03:17N 34°37' E 135°26'1 2.0
2015-Feb-25 02:34N 34°37' E 135°24'1211.9
2015-Feb-25 01:33N 34°30' E 135°13'1412.1
2015-Feb-25 00:26N 34°20' E 135°02'1011.2
2015-Feb-24 23:31N 34°10' E 134°59'1212.0
2015-Feb-24 22:31N 33°58' E 135°01'  

Dump ship's entire track history